Time;durP1;ratioP1;P1;durP2;ratioP2;P2;SDS_P1;SDS_P2;PMS_P1;PMS_P2;Temp;Humidity;BMP_temperature;BMP_pressure;BME280_temperature;BME280_humidity;BME280_pressure;Samples;Min_cycle;Max_cycle;Signal;HPM_P1;HPM_P2
2023/09/01 00:02:14;;;;;;;4.6;2.7;;;;;;;14.45;95.91309;938.3915;;;;
2023/09/01 00:04:42;;;;;;;6;2.8;;;;;;;14.55;95.0918;938.383;;;;
2023/09/01 00:07:07;;;;;;;3.7;2.5;;;;;;;14.66;94.80566;938.3434;;;;
2023/09/01 00:09:32;;;;;;;3.8;2.7;;;;;;;14.65;94.56152;938.3378;;;;
2023/09/01 00:11:57;;;;;;;3.4;2.4;;;;;;;14.6;95.38184;938.3427;;;;
2023/09/01 00:14:24;;;;;;;4.7;2.4;;;;;;;14.57;95.7793;938.2683;;;;
2023/09/01 00:16:49;;;;;;;3.1;2.5;;;;;;;14.49;95.94336;938.2559;;;;
2023/09/01 00:19:15;;;;;;;3.7;2.8;;;;;;;14.52;95.71875;938.3951;;;;
2023/09/01 00:21:41;;;;;;;3.8;2.7;;;;;;;14.54;95.02051;938.4303;;;;
2023/09/01 00:24:06;;;;;;;3.2;2.4;;;;;;;14.53;94.52441;938.3943;;;;
2023/09/01 00:26:31;;;;;;;4.5;2.8;;;;;;;14.51;94.2998;938.4144;;;;
2023/09/01 00:28:56;;;;;;;3.6;2.3;;;;;;;14.49;94.26172;938.3873;;;;
2023/09/01 00:31:23;;;;;;;2.6;2.4;;;;;;;14.51;94.17285;938.3295;;;;
2023/09/01 00:33:48;;;;;;;2.8;2.3;;;;;;;14.43;94.46875;938.2827;;;;
2023/09/01 00:36:14;;;;;;;3.5;2.4;;;;;;;14.45;94.61035;938.3331;;;;
2023/09/01 00:38:39;;;;;;;2.8;2.3;;;;;;;14.28;95.0918;938.262;;;;
2023/09/01 00:41:04;;;;;;;5.8;3;;;;;;;14.02;96.8418;938.2012;;;;
2023/09/01 00:43:29;;;;;;;5;2.9;;;;;;;14.14;96.375;938.2126;;;;
2023/09/01 00:45:56;;;;;;;4.2;3;;;;;;;14.11;96.41504;938.2833;;;;
2023/09/01 00:48:21;;;;;;;3.3;2.5;;;;;;;13.99;97.44531;938.2731;;;;
2023/09/01 00:50:46;;;;;;;3.8;2.8;;;;;;;14.15;96.84863;938.2367;;;;
2023/09/01 00:53:13;;;;;;;4.5;2.8;;;;;;;13.96;97.12695;938.2508;;;;
2023/09/01 00:55:39;;;;;;;3.9;2.4;;;;;;;13.97;97.56836;938.27;;;;
2023/09/01 00:58:05;;;;;;;3.1;2.3;;;;;;;14.04;97.25098;938.2156;;;;
2023/09/01 01:00:32;;;;;;;4.5;3.1;;;;;;;14.12;97.10547;938.2545;;;;
2023/09/01 01:03:02;;;;;;;3.8;2.4;;;;;;;14.22;96.55371;938.2047;;;;
2023/09/01 01:05:27;;;;;;;3.1;2.4;;;;;;;14.08;96.88086;938.2698;;;;
2023/09/01 01:07:53;;;;;;;3.9;2.4;;;;;;;14.13;96.86621;938.2792;;;;
2023/09/01 01:10:18;;;;;;;3;2.4;;;;;;;13.89;98.27539;938.2935;;;;
2023/09/01 01:12:43;;;;;;;4;2.5;;;;;;;14.03;97.92578;938.3148;;;;
2023/09/01 01:15:09;;;;;;;3.4;2.7;;;;;;;14.15;97.19434;938.3113;;;;
2023/09/01 01:17:37;;;;;;;3.1;2.7;;;;;;;14.14;96.47852;938.264;;;;
2023/09/01 01:20:03;;;;;;;4;2.4;;;;;;;14.22;96.00098;938.2823;;;;
2023/09/01 01:22:28;;;;;;;2.9;2.4;;;;;;;14.25;95.66211;938.2198;;;;
2023/09/01 01:24:55;;;;;;;2.6;2.3;;;;;;;14.12;96.16113;938.2056;;;;
2023/09/01 01:27:20;;;;;;;3.6;2.4;;;;;;;14.17;96.09277;938.1558;;;;
2023/09/01 01:29:49;;;;;;;2.5;2.3;;;;;;;14.13;95.7832;938.1303;;;;
2023/09/01 01:32:14;;;;;;;3.2;2.9;;;;;;;14.14;95.71875;938.1295;;;;
2023/09/01 01:34:39;;;;;;;6;2.5;;;;;;;14.16;95.8584;938.1069;;;;
2023/09/01 01:37:04;;;;;;;2.5;2.3;;;;;;;14.15;95.60547;938.1062;;;;
2023/09/01 01:39:33;;;;;;;4.4;2.3;;;;;;;14.04;96.27246;938.0322;;;;
2023/09/01 01:41:58;;;;;;;4.3;2.6;;;;;;;14.05;96.18066;938.0642;;;;
2023/09/01 01:44:23;;;;;;;2.9;2.4;;;;;;;13.99;95.57129;938.0217;;;;
2023/09/01 01:46:48;;;;;;;3;2.3;;;;;;;14.03;95.58691;938.0027;;;;
2023/09/01 01:49:16;;;;;;;3.7;2.6;;;;;;;14.02;95.41504;937.9842;;;;
2023/09/01 01:51:41;;;;;;;5.2;2.6;;;;;;;13.86;96.38184;937.9854;;;;
2023/09/01 01:54:06;;;;;;;5;2.4;;;;;;;13.4;99.20898;937.9746;;;;
2023/09/01 01:56:31;;;;;;;4.4;2.5;;;;;;;13.49;98.88477;937.9819;;;;
2023/09/01 01:58:56;;;;;;;3.4;2.5;;;;;;;13.38;99.59766;937.925;;;;
2023/09/01 02:01:22;;;;;;;3.2;2.6;;;;;;;13.39;100;937.933;;;;
2023/09/01 02:03:48;;;;;;;3.9;2.2;;;;;;;13.37;99.90625;937.8962;;;;
2023/09/01 02:06:16;;;;;;;4.3;2.6;;;;;;;13.31;99.85645;937.8692;;;;
2023/09/01 02:08:41;;;;;;;4.9;2.7;;;;;;;13.38;99.40234;937.8539;;;;
2023/09/01 02:11:06;;;;;;;3.6;2.8;;;;;;;13.39;99.18555;937.8354;;;;
2023/09/01 02:13:31;;;;;;;3.8;2.7;;;;;;;13.49;98.63379;937.758;;;;
2023/09/01 02:15:59;;;;;;;4;2.4;;;;;;;13.52;98.00781;937.7795;;;;
2023/09/01 02:18:25;;;;;;;3.6;2.5;;;;;;;13.52;97.69531;937.8483;;;;
2023/09/01 02:20:50;;;;;;;3.4;2.6;;;;;;;13.36;98.94824;937.8092;;;;
2023/09/01 02:23:15;;;;;;;3.8;2.7;;;;;;;13.24;99.97559;937.8373;;;;
2023/09/01 02:25:41;;;;;;;2.7;2.4;;;;;;;13.22;99.96289;937.8094;;;;
2023/09/01 02:28:06;;;;;;;3.9;2.8;;;;;;;13.27;99.44238;937.8605;;;;
2023/09/01 02:30:33;;;;;;;2.8;2.5;;;;;;;13.16;99.41992;937.8777;;;;
2023/09/01 02:32:58;;;;;;;4.1;2.5;;;;;;;13.12;99.81152;937.8945;;;;
2023/09/01 02:35:26;;;;;;;3.4;2.7;;;;;;;13.11;99.69434;937.8889;;;;
2023/09/01 02:37:51;;;;;;;3.5;2.5;;;;;;;13.14;99.21973;937.8761;;;;
2023/09/01 02:40:16;;;;;;;3.6;2.4;;;;;;;13.17;98.5625;937.892;;;;
2023/09/01 02:42:42;;;;;;;2.5;2.3;;;;;;;13.12;98.58398;937.94;;;;
2023/09/01 02:45:09;;;;;;;2.5;2.3;;;;;;;13.13;98.29883;937.9177;;;;
2023/09/01 02:47:33;;;;;;;3.6;2.9;;;;;;;13.04;98.79395;937.9522;;;;
2023/09/01 02:50:02;;;;;;;4.4;2.4;;;;;;;13.07;98.66406;937.9017;;;;
2023/09/01 02:52:25;;;;;;;2.8;2.5;;;;;;;13.04;98.47363;938.0248;;;;
2023/09/01 02:54:51;;;;;;;4.5;2.6;;;;;;;13.08;98.08008;937.988;;;;
2023/09/01 02:57:16;;;;;;;3.1;2.5;;;;;;;13.12;97.55957;938.0208;;;;
2023/09/01 02:59:43;;;;;;;3.9;2.6;;;;;;;13.05;97.60156;937.9545;;;;
2023/09/01 03:02:08;;;;;;;2.5;2.3;;;;;;;12.99;97.83008;937.9902;;;;
2023/09/01 03:04:37;;;;;;;3.4;2.6;;;;;;;12.78;99.14746;937.9627;;;;
2023/09/01 03:07:01;;;;;;;3.6;2.6;;;;;;;12.8;99.21094;937.9572;;;;
2023/09/01 03:09:29;;;;;;;3;2.7;;;;;;;12.77;99.58301;937.9611;;;;
2023/09/01 03:11:54;;;;;;;4.4;2.6;;;;;;;12.82;99.26074;938.0254;;;;
2023/09/01 03:14:21;;;;;;;4.4;3;;;;;;;12.77;99.12402;938.0115;;;;
2023/09/01 03:16:45;;;;;;;3.3;2.9;;;;;;;12.75;98.5791;938.0306;;;;
2023/09/01 03:19:12;;;;;;;3.6;3;;;;;;;12.62;98.91699;937.9778;;;;
2023/09/01 03:21:37;;;;;;;3.7;2.9;;;;;;;12.6;99.26855;937.9312;;;;
2023/09/01 03:24:02;;;;;;;3.4;2.7;;;;;;;12.63;99.02246;937.8931;;;;
2023/09/01 03:26:27;;;;;;;4.2;2.6;;;;;;;12.43;99.6084;937.8742;;;;
2023/09/01 03:28:54;;;;;;;3.9;2.6;;;;;;;12.08;100;937.9511;;;;
2023/09/01 03:31:19;;;;;;;3.4;2.8;;;;;;;12.07;100;937.9917;;;;
2023/09/01 03:33:47;;;;;;;4.2;3.1;;;;;;;12.24;100;937.9008;;;;
2023/09/01 03:36:11;;;;;;;4;2.9;;;;;;;12.33;100;937.9409;;;;
2023/09/01 03:38:37;;;;;;;3.6;2.7;;;;;;;12.38;100;937.9769;;;;
2023/09/01 03:41:02;;;;;;;4.5;3.1;;;;;;;12.45;100;937.947;;;;
2023/09/01 03:43:27;;;;;;;3.7;2.4;;;;;;;12.48;100;937.9183;;;;
2023/09/01 03:45:53;;;;;;;3.8;2.7;;;;;;;12.34;100;937.9913;;;;
2023/09/01 03:48:18;;;;;;;3.9;2.8;;;;;;;12.07;100;937.9136;;;;
2023/09/01 03:50:44;;;;;;;4.8;3;;;;;;;12;100;937.9434;;;;
2023/09/01 03:53:09;;;;;;;5;2.7;;;;;;;12.15;100;937.9217;;;;
2023/09/01 03:55:38;;;;;;;3.7;2.7;;;;;;;12.22;100;937.8592;;;;
2023/09/01 03:58:02;;;;;;;3.4;2.7;;;;;;;12.15;100;937.83;;;;
2023/09/01 04:02:29;;;;;;;2.8;2.4;;;;;;;12.26;100;937.8833;;;;
2023/09/01 04:04:54;;;;;;;2.7;2.5;;;;;;;12.2;100;937.8276;;;;
2023/09/01 04:07:20;;;;;;;4.7;2.7;;;;;;;12.3;100;937.9105;;;;
2023/09/01 04:09:46;;;;;;;3.8;2.6;;;;;;;12.44;100;937.9086;;;;
2023/09/01 04:12:12;;;;;;;3.4;2.7;;;;;;;12.47;100;937.9382;;;;
2023/09/01 04:14:37;;;;;;;360.2;175.1;;;;;;;12.47;100;937.9238;;;;
2023/09/01 04:17:04;;;;;;;361.8;176.1;;;;;;;12.56;100;937.9711;;;;
2023/09/01 04:19:27;;;;;;;6.5;4.8;;;;;;;12.52;100;937.9646;;;;
2023/09/01 04:21:56;;;;;;;4.1;3.3;;;;;;;12.58;100;938.0574;;;;
2023/09/01 04:24:21;;;;;;;3.1;2.8;;;;;;;12.6;99.71387;938.0478;;;;
2023/09/01 04:26:48;;;;;;;5.9;3.9;;;;;;;12.55;99.62305;938.027;;;;
2023/09/01 04:29:14;;;;;;;5;3.4;;;;;;;12.55;99.40527;938.027;;;;
2023/09/01 04:31:38;;;;;;;6.9;3.9;;;;;;;12.47;99.5127;938.0541;;;;
2023/09/01 04:34:05;;;;;;;6.1;3.9;;;;;;;12.44;99.6123;938.0692;;;;
2023/09/01 04:36:30;;;;;;;5.8;4;;;;;;;12.43;99.70898;938.0683;;;;
2023/09/01 04:38:55;;;;;;;4.2;2.8;;;;;;;12.42;100;938.0156;;;;
2023/09/01 04:41:20;;;;;;;4;3.1;;;;;;;12.5;100;937.9758;;;;
2023/09/01 04:43:45;;;;;;;4.3;3;;;;;;;12.68;99.94141;937.9899;;;;
2023/09/01 04:46:10;;;;;;;4.4;3.1;;;;;;;12.81;99.04102;937.9403;;;;
2023/09/01 04:48:38;;;;;;;3.3;2.6;;;;;;;12.83;98.63184;937.9335;;;;
2023/09/01 04:51:03;;;;;;;2.9;2.6;;;;;;;12.46;100;938.0069;;;;
2023/09/01 04:53:30;;;;;;;4.2;2.9;;;;;;;12.49;100;938.0005;;;;
2023/09/01 04:55:55;;;;;;;4.1;3;;;;;;;12.63;100;937.9786;;;;
2023/09/01 04:58:20;;;;;;;4.2;2.6;;;;;;;12.77;99.7207;937.9564;;;;
2023/09/01 05:00:46;;;;;;;2.9;2.4;;;;;;;12.87;98.98633;938.0358;;;;
2023/09/01 05:03:13;;;;;;;3.8;2.9;;;;;;;13;98.53516;938.0829;;;;
2023/09/01 05:05:38;;;;;;;4.4;2.6;;;;;;;12.97;97.97559;938.0181;;;;
2023/09/01 05:08:04;;;;;;;4.1;3.1;;;;;;;12.81;98.7998;938.0442;;;;
2023/09/01 05:10:29;;;;;;;4.4;3.1;;;;;;;12.71;99.6377;937.9492;;;;
2023/09/01 05:12:57;;;;;;;4.5;3.2;;;;;;;12.67;100;938.0027;;;;
2023/09/01 05:15:22;;;;;;;3.6;3;;;;;;;12.88;99.82617;938.0486;;;;
2023/09/01 05:17:48;;;;;;;5.7;3.2;;;;;;;13.1;98.93652;938.0457;;;;
2023/09/01 05:20:13;;;;;;;4;2.9;;;;;;;13.24;97.77051;937.9749;;;;
2023/09/01 05:22:41;;;;;;;4.5;3;;;;;;;13.38;97.18359;938.0578;;;;
2023/09/01 05:25:06;;;;;;;4.1;2.6;;;;;;;13.41;96.95996;938.1553;;;;
2023/09/01 05:27:32;;;;;;;4.6;2.9;;;;;;;13.28;97.13672;938.1436;;;;
2023/09/01 05:29:57;;;;;;;4.9;3.4;;;;;;;13.24;97.41406;938.1964;;;;
2023/09/01 05:32:22;;;;;;;5.3;3.1;;;;;;;13.24;97.8623;938.1324;;;;
2023/09/01 05:34:48;;;;;;;3.6;2.9;;;;;;;13.46;96.95898;938.162;;;;
2023/09/01 05:37:14;;;;;;;4.5;2.9;;;;;;;13.56;97.05176;938.1362;;;;
2023/09/01 05:39:38;;;;;;;4.3;2.7;;;;;;;13.75;96.08008;938.1936;;;;
2023/09/01 05:42:04;;;;;;;2.6;2.4;;;;;;;13.79;95.50293;938.2214;;;;
2023/09/01 05:44:30;;;;;;;3.2;2.4;;;;;;;13.89;94.94922;938.2463;;;;
2023/09/01 05:46:55;;;;;;;3.1;2.5;;;;;;;13.79;94.62891;938.2327;;;;
2023/09/01 05:49:22;;;;;;;3.5;2.9;;;;;;;13.73;95.41992;938.2784;;;;
2023/09/01 05:51:47;;;;;;;2.8;2.6;;;;;;;13.84;95.12402;938.2336;;;;
2023/09/01 05:54:14;;;;;;;2.4;2.1;;;;;;;13.87;94.90918;938.2559;;;;
2023/09/01 05:56:39;;;;;;;3.5;2.4;;;;;;;14.03;94.24219;938.218;;;;
2023/09/01 05:59:05;;;;;;;3.5;2.1;;;;;;;14.12;93.37793;938.2241;;;;
2023/09/01 06:01:35;;;;;;;4.1;2.6;;;;;;;14.22;92.97266;938.247;;;;
2023/09/01 06:03:55;;;;;;;3.1;2.7;;;;;;;14.19;92.98633;938.2654;;;;
2023/09/01 06:06:23;;;;;;;3.9;2.5;;;;;;;14.32;93.12988;938.2811;;;;
2023/09/01 06:08:48;;;;;;;3.4;2.5;;;;;;;14.45;92.69824;938.2489;;;;
2023/09/01 06:11:16;;;;;;;2.9;2.4;;;;;;;14.54;92.1875;938.3686;;;;
2023/09/01 06:13:42;;;;;;;2.2;2;;;;;;;14.68;91.91602;938.3481;;;;
2023/09/01 06:16:07;;;;;;;3;2.5;;;;;;;14.66;91.94727;938.3794;;;;
2023/09/01 06:18:32;;;;;;;3.9;2.6;;;;;;;14.79;91.40918;938.405;;;;
2023/09/01 06:20:58;;;;;;;3.7;2.3;;;;;;;14.94;90.51855;938.373;;;;
2023/09/01 06:23:24;;;;;;;2.9;2.3;;;;;;;14.89;89.49414;938.3742;;;;
2023/09/01 06:25:52;;;;;;;4.2;2.3;;;;;;;15.06;89.81738;938.4734;;;;
2023/09/01 06:28:17;;;;;;;3;2.4;;;;;;;15.13;89.06738;938.4361;;;;
2023/09/01 06:30:42;;;;;;;2.5;2.3;;;;;;;15.25;87.9043;938.4266;;;;
2023/09/01 06:33:08;;;;;;;3.4;2.4;;;;;;;15.41;88.0293;938.4533;;;;
2023/09/01 06:35:37;;;;;;;3.4;2.4;;;;;;;15.55;87.48047;938.4202;;;;
2023/09/01 06:38:02;;;;;;;3.7;2.3;;;;;;;15.57;86.23633;938.4586;;;;
2023/09/01 06:40:29;;;;;;;3;2.3;;;;;;;15.71;86.64453;938.4344;;;;
2023/09/01 06:42:54;;;;;;;2.7;2.2;;;;;;;15.73;85.49316;938.472;;;;
2023/09/01 06:45:20;;;;;;;2.5;2.1;;;;;;;15.6;85.22559;938.4689;;;;
2023/09/01 06:47:46;;;;;;;2.4;2.2;;;;;;;15.65;87.28125;938.4744;;;;
2023/09/01 06:50:13;;;;;;;2.6;2.2;;;;;;;15.84;86.29004;938.4551;;;;
2023/09/01 06:52:38;;;;;;;2.9;2;;;;;;;15.96;85.62012;938.5221;;;;
2023/09/01 06:55:04;;;;;;;4.2;2.3;;;;;;;16.08;85.20508;938.4945;;;;
2023/09/01 06:57:29;;;;;;;2.5;2.2;;;;;;;16.26;84.78906;938.4799;;;;
2023/09/01 06:59:56;;;;;;;2.9;2.6;;;;;;;16.47;84.60742;938.4888;;;;
2023/09/01 07:02:21;;;;;;;2.9;2.2;;;;;;;16.78;83.27832;938.4554;;;;
2023/09/01 07:04:49;;;;;;;2.2;2;;;;;;;17.08;81.3418;938.4807;;;;
2023/09/01 07:07:13;;;;;;;3.7;2.2;;;;;;;17.17;80.44434;938.4897;;;;
2023/09/01 07:09:41;;;;;;;2.8;2.1;;;;;;;17.54;78.21289;938.457;;;;
2023/09/01 07:12:06;;;;;;;2.6;2;;;;;;;17.78;76.95605;938.4734;;;;
2023/09/01 07:14:34;;;;;;;4.8;2.3;;;;;;;18.16;75.69824;938.5128;;;;
2023/09/01 07:16:59;;;;;;;2.8;2.1;;;;;;;18.48;74.91504;938.5095;;;;
2023/09/01 07:19:25;;;;;;;2.7;2;;;;;;;18.84;73.54492;938.4115;;;;
2023/09/01 07:21:50;;;;;;;3.6;2.3;;;;;;;19.25;72.11035;938.4964;;;;
2023/09/01 07:24:17;;;;;;;2.9;2;;;;;;;20.55;68.00098;938.3945;;;;
2023/09/01 07:26:43;;;;;;;4.6;2.3;;;;;;;20.78;63.85254;938.4388;;;;
2023/09/01 07:29:07;;;;;;;4;2.2;;;;;;;20.95;64.90625;938.3839;;;;
2023/09/01 07:31:32;;;;;;;2.1;1.9;;;;;;;20.53;64.03809;938.3722;;;;
2023/09/01 07:33:57;;;;;;;2.3;1.9;;;;;;;20.8;66.28613;938.4462;;;;
2023/09/01 07:36:24;;;;;;;2.5;1.8;;;;;;;20.72;64.89453;938.4431;;;;
2023/09/01 07:38:49;;;;;;;3.9;2;;;;;;;20.45;64.4707;938.4659;;;;
2023/09/01 07:41:17;;;;;;;3;2;;;;;;;20.1;66.4043;938.4982;;;;
2023/09/01 07:43:42;;;;;;;2.8;2;;;;;;;19.9;66.46582;938.4694;;;;
2023/09/01 07:46:08;;;;;;;4.5;1.9;;;;;;;19.97;67.91016;938.5233;;;;
2023/09/01 07:48:33;;;;;;;4.1;2.2;;;;;;;20;67.33398;938.5223;;;;
2023/09/01 07:51:01;;;;;;;2;1.8;;;;;;;20.16;69.72656;938.5249;;;;
2023/09/01 07:53:26;;;;;;;2.7;1.7;;;;;;;20.26;66.25195;938.5339;;;;
2023/09/01 07:55:52;;;;;;;2.6;2;;;;;;;20.26;65.51758;938.55;;;;
2023/09/01 07:58:18;;;;;;;1.7;1.5;;;;;;;20.46;64.96191;938.5386;;;;
2023/09/01 08:00:45;;;;;;;2.6;2;;;;;;;20.75;64.94531;938.473;;;;
2023/09/01 08:03:12;;;;;;;2.6;1.8;;;;;;;20.96;63.41113;938.5276;;;;
2023/09/01 08:05:37;;;;;;;2.6;1.8;;;;;;;20.78;64.7168;938.5206;;;;
2023/09/01 08:08:02;;;;;;;2.2;2;;;;;;;20.7;65.61523;938.5481;;;;
2023/09/01 08:10:27;;;;;;;2.3;2.1;;;;;;;20.61;63.66406;938.5828;;;;
2023/09/01 08:12:53;;;;;;;2.7;1.8;;;;;;;21.03;64.16797;938.5414;;;;
2023/09/01 08:15:18;;;;;;;2.1;1.8;;;;;;;21.23;61.97559;938.6042;;;;
2023/09/01 08:17:46;;;;;;;2;1.8;;;;;;;21.29;61.16211;938.5648;;;;
2023/09/01 08:20:11;;;;;;;2.9;1.8;;;;;;;21.39;60.99121;938.5784;;;;
2023/09/01 08:22:38;;;;;;;3.4;1.9;;;;;;;21.59;62.28223;938.5861;;;;
2023/09/01 08:25:03;;;;;;;2.5;2;;;;;;;21.96;60.37793;938.606;;;;
2023/09/01 08:27:29;;;;;;;4.1;2.2;;;;;;;21.93;60.06836;938.5966;;;;
2023/09/01 08:29:54;;;;;;;2.7;1.8;;;;;;;21.47;58.09668;938.5958;;;;
2023/09/01 08:32:21;;;;;;;2.7;2;;;;;;;22.15;57.41309;938.597;;;;
2023/09/01 08:34:46;;;;;;;1.9;1.7;;;;;;;22.88;56.16992;938.6189;;;;
2023/09/01 08:37:15;;;;;;;2.3;1.8;;;;;;;23.31;53.14258;938.574;;;;
2023/09/01 08:39:36;;;;;;;2.2;1.9;;;;;;;23.7;54.07227;938.625;;;;
2023/09/01 08:42:03;;;;;;;2.9;1.8;;;;;;;23.97;53.45801;938.568;;;;
2023/09/01 08:44:29;;;;;;;2.8;1.8;;;;;;;24.38;52.40039;938.5861;;;;
2023/09/01 08:46:55;;;;;;;2.2;1.6;;;;;;;25.37;50.1543;938.4827;;;;
2023/09/01 08:49:19;;;;;;;1.7;1.6;;;;;;;25.17;47.74805;938.5339;;;;
2023/09/01 08:51:46;;;;;;;2.1;1.7;;;;;;;24.87;51.21875;938.4699;;;;
2023/09/01 08:54:11;;;;;;;2;1.8;;;;;;;25.66;49.79688;938.5002;;;;
2023/09/01 08:56:41;;;;;;;1.8;1.7;;;;;;;25.19;49.50781;938.4575;;;;
2023/09/01 08:59:06;;;;;;;2.1;1.7;;;;;;;24.54;49.80176;938.4346;;;;
2023/09/01 09:01:32;;;;;;;3.8;1.6;;;;;;;23.93;50.99316;938.4107;;;;
2023/09/01 09:03:57;;;;;;;2.2;1.7;;;;;;;24.22;51.70898;938.4535;;;;
2023/09/01 09:06:25;;;;;;;2.6;1.7;;;;;;;24.44;50.23828;938.361;;;;
2023/09/01 09:08:50;;;;;;;1.6;1.5;;;;;;;25.04;51.15527;938.3538;;;;
2023/09/01 09:11:17;;;;;;;1.9;1.7;;;;;;;25.07;49.75488;938.3398;;;;
2023/09/01 09:13:42;;;;;;;2;1.7;;;;;;;24.99;49.26172;938.2755;;;;
2023/09/01 09:16:08;;;;;;;1.5;1.4;;;;;;;24.03;50.78125;938.1914;;;;
2023/09/01 09:18:33;;;;;;;4.8;1.7;;;;;;;23.76;51.29102;938.3152;;;;
2023/09/01 09:21:02;;;;;;;2;1.6;;;;;;;23.87;51.35059;938.2873;;;;
2023/09/01 09:23:27;;;;;;;2.6;1.5;;;;;;;23.47;52.92773;938.3281;;;;
2023/09/01 09:25:52;;;;;;;2.3;1.6;;;;;;;23.66;52.90332;938.324;;;;
2023/09/01 09:28:18;;;;;;;3;2;;;;;;;23.86;54.47949;938.3;;;;
2023/09/01 09:30:44;;;;;;;1.9;1.6;;;;;;;23.54;55.3584;938.3075;;;;
2023/09/01 09:33:09;;;;;;;2.1;1.9;;;;;;;23.88;52.70605;938.2811;;;;
2023/09/01 09:35:34;;;;;;;2.2;1.7;;;;;;;23.49;53.93066;938.3572;;;;
2023/09/01 09:37:59;;;;;;;1.9;1.7;;;;;;;23.98;50.7627;938.3167;;;;
2023/09/01 09:40:24;;;;;;;2.9;1.6;;;;;;;24.11;52.60352;938.3586;;;;
2023/09/01 09:42:51;;;;;;;2.1;1.6;;;;;;;23.6;52.71973;938.3254;;;;
2023/09/01 09:45:16;;;;;;;2.2;1.5;;;;;;;23.95;52.60938;938.3301;;;;
2023/09/01 09:47:44;;;;;;;1.8;1.5;;;;;;;24.38;51.82227;938.3524;;;;
2023/09/01 09:50:09;;;;;;;2.6;1.5;;;;;;;24.66;52.18457;938.3506;;;;
2023/09/01 09:52:37;;;;;;;1.6;1.5;;;;;;;24.2;51.41211;938.3786;;;;
2023/09/01 09:55:03;;;;;;;1.3;1.2;;;;;;;24.05;48.01563;938.3044;;;;
2023/09/01 09:57:27;;;;;;;2.1;1.4;;;;;;;24.42;51.08496;938.2913;;;;
2023/09/01 09:59:54;;;;;;;1.6;1.5;;;;;;;24.31;49.13965;938.3655;;;;
2023/09/01 10:02:20;;;;;;;1.5;1.4;;;;;;;24.43;49.89551;938.3239;;;;
2023/09/01 10:04:45;;;;;;;1.6;1.5;;;;;;;24.54;50.69727;938.2936;;;;
2023/09/01 10:07:10;;;;;;;1.9;1.4;;;;;;;24.03;49.32031;938.2425;;;;
2023/09/01 10:09:39;;;;;;;1.6;1.5;;;;;;;24.2;56.75977;938.2347;;;;
2023/09/01 10:12:06;;;;;;;2.1;1.5;;;;;;;24.1;55.39258;938.2486;;;;
2023/09/01 10:14:31;;;;;;;1.5;1.4;;;;;;;24.12;55.36035;938.2224;;;;
2023/09/01 10:16:57;;;;;;;1.8;1.4;;;;;;;24.94;50.88477;938.1783;;;;
2023/09/01 10:19:24;;;;;;;2.1;1.7;;;;;;;25.3;54.38477;938.1803;;;;
2023/09/01 10:21:50;;;;;;;2;1.5;;;;;;;24.8;55.88086;938.1522;;;;
2023/09/01 10:24:16;;;;;;;2;1.6;;;;;;;25.14;54.7666;938.1193;;;;
2023/09/01 10:26:41;;;;;;;2.5;1.5;;;;;;;25.52;50.14746;938.1006;;;;
2023/09/01 10:29:06;;;;;;;1.9;1.1;;;;;;;26.63;49.44336;938.0854;;;;
2023/09/01 10:31:31;;;;;;;1.4;1.3;;;;;;;26.66;51.21094;938.0692;;;;
2023/09/01 10:33:57;;;;;;;2;1.2;;;;;;;26.04;55.2207;938.0277;;;;
2023/09/01 10:36:22;;;;;;;1.4;1.2;;;;;;;26.35;49.81445;938.0701;;;;
2023/09/01 10:38:48;;;;;;;3.1;1.3;;;;;;;26.65;52.22852;938.0281;;;;
2023/09/01 10:41:45;;;;;;;1.4;1.2;;;;;;;26.38;52.08984;938.0646;;;;
2023/09/01 10:44:10;;;;;;;1.1;1;;;;;;;26.81;48.7041;938.0259;;;;
2023/09/01 10:46:37;;;;;;;1.2;1;;;;;;;27.71;46.33203;938.0213;;;;
2023/09/01 10:49:04;;;;;;;2.1;1.1;;;;;;;28.17;45.13184;938.04;;;;
2023/09/01 10:51:27;;;;;;;1.4;1.3;;;;;;;28.36;44.31934;938.0363;;;;
2023/09/01 10:53:52;;;;;;;1.6;1.2;;;;;;;28.12;45.41309;937.9995;;;;
2023/09/01 10:56:19;;;;;;;1.5;1.3;;;;;;;28.25;46.57813;938.0204;;;;
2023/09/01 10:58:45;;;;;;;1.3;1.2;;;;;;;29.4;41.5498;937.965;;;;
2023/09/01 11:01:10;;;;;;;1.3;1.1;;;;;;;31.06;38.80859;938.0259;;;;
2023/09/01 11:03:38;;;;;;;1.5;1;;;;;;;31.84;37.4248;937.9921;;;;
2023/09/01 11:06:00;;;;;;;1.7;0.9;;;;;;;31.53;41.39844;937.9564;;;;
2023/09/01 11:08:27;;;;;;;1.3;1.2;;;;;;;31.81;38.0459;937.9255;;;;
2023/09/01 11:10:52;;;;;;;1.2;1;;;;;;;31.45;37.15332;937.931;;;;
2023/09/01 11:13:17;;;;;;;1;0.9;;;;;;;33.13;33.42285;937.8811;;;;
2023/09/01 11:15:45;;;;;;;1.2;1.1;;;;;;;33.13;34.31152;937.8772;;;;
2023/09/01 11:18:10;;;;;;;1.9;0.8;;;;;;;34.18;32.33203;937.8978;;;;
2023/09/01 11:20:38;;;;;;;2.4;1.2;;;;;;;33.76;32.87988;937.8367;;;;
2023/09/01 11:23:03;;;;;;;1;0.9;;;;;;;35.39;29.94336;937.8851;;;;
2023/09/01 11:25:28;;;;;;;0.9;0.9;;;;;;;35.1;31.02148;937.8586;;;;
2023/09/01 11:27:54;;;;;;;1;1;;;;;;;33.25;35.51074;937.8275;;;;
2023/09/01 11:30:19;;;;;;;1.3;1.2;;;;;;;32.76;35.17285;937.822;;;;
2023/09/01 11:32:51;;;;;;;1.4;1;;;;;;;31.88;36.08691;937.7502;;;;
2023/09/01 11:35:14;;;;;;;1.1;1;;;;;;;33.87;33.60938;937.7498;;;;
2023/09/01 11:37:40;;;;;;;1.8;1.1;;;;;;;36.47;28.56152;937.7523;;;;
2023/09/01 11:40:08;;;;;;;1;0.9;;;;;;;34.54;31.70703;937.6958;;;;
2023/09/01 11:42:31;;;;;;;1.5;1.1;;;;;;;35.84;28.88477;937.6861;;;;
2023/09/01 11:44:57;;;;;;;1.3;1;;;;;;;35.25;30.10254;937.6364;;;;
2023/09/01 11:47:25;;;;;;;1.2;1;;;;;;;35.21;32.32129;937.6618;;;;
2023/09/01 11:49:47;;;;;;;1.2;1.1;;;;;;;33.42;35.43945;937.5722;;;;
2023/09/01 11:52:13;;;;;;;1.3;1.2;;;;;;;33.41;32.10938;937.5047;;;;
2023/09/01 11:54:37;;;;;;;1.7;1.1;;;;;;;31.8;35.23047;937.5425;;;;
2023/09/01 11:57:03;;;;;;;2.4;1.1;;;;;;;30.91;36.57227;937.4745;;;;
2023/09/01 11:59:29;;;;;;;0.9;0.9;;;;;;;32.71;38.2168;937.4568;;;;
2023/09/01 12:01:54;;;;;;;1.6;1;;;;;;;35.68;31.84668;937.5184;;;;
2023/09/01 12:04:20;;;;;;;1.1;1;;;;;;;36.69;29.41016;937.4888;;;;
2023/09/01 12:06:46;;;;;;;1.1;1;;;;;;;37.44;27.59082;937.4838;;;;
2023/09/01 12:09:11;;;;;;;1.4;1.2;;;;;;;35.37;30.37598;937.4878;;;;
2023/09/01 12:11:36;;;;;;;1.5;1.2;;;;;;;35.62;31.81836;937.4728;;;;
2023/09/01 12:14:01;;;;;;;1.3;1.1;;;;;;;33.58;35.93359;937.4456;;;;
2023/09/01 12:16:29;;;;;;;1.7;1.3;;;;;;;32.18;35.2959;937.4161;;;;
2023/09/01 12:18:54;;;;;;;1.8;1.1;;;;;;;34.29;33.0625;937.4164;;;;
2023/09/01 12:21:21;;;;;;;1.2;1.1;;;;;;;36.38;29.76563;937.3359;;;;
2023/09/01 12:23:46;;;;;;;1.3;1.2;;;;;;;35.44;33.2666;937.3907;;;;
2023/09/01 12:26:11;;;;;;;1.9;1.1;;;;;;;36.74;29.30469;937.4319;;;;
2023/09/01 12:28:36;;;;;;;1.4;1.1;;;;;;;36.42;29.25977;937.42;;;;
2023/09/01 12:31:03;;;;;;;0.9;0.9;;;;;;;36.21;30.22559;937.4095;;;;
2023/09/01 12:33:28;;;;;;;1.1;1;;;;;;;36.2;31.04785;937.4077;;;;
2023/09/01 12:35:54;;;;;;;2.4;1.1;;;;;;;35.99;31.84375;937.4372;;;;
2023/09/01 12:38:19;;;;;;;1.9;1.3;;;;;;;34.47;35.24512;937.3853;;;;
2023/09/01 12:40:46;;;;;;;1.2;1.1;;;;;;;33.6;35.34668;937.2942;;;;
2023/09/01 12:43:11;;;;;;;1.3;1.2;;;;;;;33.06;35.14844;937.4005;;;;
2023/09/01 12:45:38;;;;;;;1.5;1;;;;;;;33.29;36.36719;937.3212;;;;
2023/09/01 12:48:03;;;;;;;1.2;1.1;;;;;;;33.92;34.07129;937.3546;;;;
2023/09/01 12:50:28;;;;;;;1.2;1.1;;;;;;;32.77;37.63477;937.3764;;;;
2023/09/01 12:52:53;;;;;;;2.1;1.1;;;;;;;32.49;38.72754;937.3716;;;;
2023/09/01 12:55:21;;;;;;;1.5;1;;;;;;;33.25;36.56836;937.3053;;;;
2023/09/01 12:57:47;;;;;;;1.2;1;;;;;;;33.89;34.29785;937.3603;;;;
2023/09/01 13:00:15;;;;;;;1.3;1.1;;;;;;;33.91;34.47949;937.3091;;;;
2023/09/01 13:02:41;;;;;;;1.3;1.1;;;;;;;31.69;39.2334;937.2399;;;;
2023/09/01 13:05:05;;;;;;;1.2;1.1;;;;;;;33.06;37.10645;937.2695;;;;
2023/09/01 13:07:31;;;;;;;1.6;1.1;;;;;;;32.82;36.14941;937.1824;;;;
2023/09/01 13:09:56;;;;;;;1.8;1;;;;;;;32.15;37.7627;937.1544;;;;
2023/09/01 13:12:22;;;;;;;1.2;1.1;;;;;;;30.38;40.74414;937.2656;;;;
2023/09/01 13:14:47;;;;;;;2.9;1;;;;;;;30.15;44.01758;937.3159;;;;
2023/09/01 13:17:13;;;;;;;1.3;1;;;;;;;31.39;38.99219;937.2773;;;;
2023/09/01 13:19:39;;;;;;;0.8;0.8;;;;;;;32.07;36.42676;937.2605;;;;
2023/09/01 13:22:06;;;;;;;1.1;1;;;;;;;30.52;40.48242;937.2586;;;;
2023/09/01 13:24:31;;;;;;;1.1;0.8;;;;;;;29.63;42.78809;937.2527;;;;
2023/09/01 13:26:58;;;;;;;1.2;1.1;;;;;;;29.28;41.99121;937.1804;;;;
2023/09/01 13:29:23;;;;;;;1.9;1;;;;;;;29.03;42.99219;937.1496;;;;
2023/09/01 13:31:50;;;;;;;1.4;1.1;;;;;;;27.97;47.45313;937.1853;;;;
2023/09/01 13:34:15;;;;;;;1.4;1.2;;;;;;;27.83;46.25;937.1365;;;;
2023/09/01 13:36:40;;;;;;;0.8;0.8;;;;;;;28;45.0791;937.1799;;;;
2023/09/01 13:39:05;;;;;;;1.1;1;;;;;;;28.22;45.48242;937.1534;;;;
2023/09/01 13:41:31;;;;;;;1.4;1;;;;;;;27.41;48.6748;937.1446;;;;
2023/09/01 13:43:56;;;;;;;1.9;1.2;;;;;;;27.56;44.94141;937.0664;;;;
2023/09/01 13:46:24;;;;;;;1.5;1;;;;;;;27.36;45.13477;937.1064;;;;
2023/09/01 13:48:49;;;;;;;1;0.9;;;;;;;27.51;46.19336;937.041;;;;
2023/09/01 13:51:15;;;;;;;0.9;0.9;;;;;;;27.43;45.47266;937.0502;;;;
2023/09/01 13:53:40;;;;;;;1.1;1;;;;;;;27.47;47.22168;937.0499;;;;
2023/09/01 13:56:09;;;;;;;1.4;1.1;;;;;;;27.62;47.59277;936.9698;;;;
2023/09/01 13:58:34;;;;;;;0.8;0.8;;;;;;;27.32;47.72754;937.0154;;;;
2023/09/01 14:01:00;;;;;;;1.3;1.1;;;;;;;27.33;47.00488;936.9227;;;;
2023/09/01 14:03:24;;;;;;;1.2;1.1;;;;;;;27.31;47.12207;936.9988;;;;
2023/09/01 14:05:50;;;;;;;1.2;0.8;;;;;;;27.24;50.04297;937.0087;;;;
2023/09/01 14:08:15;;;;;;;1.1;1;;;;;;;27.43;48;936.9766;;;;
2023/09/01 14:10:42;;;;;;;1;0.9;;;;;;;27.42;48.05859;936.9363;;;;
2023/09/01 14:13:07;;;;;;;1.2;0.8;;;;;;;26.78;48.29883;936.9483;;;;
2023/09/01 14:15:35;;;;;;;0.9;0.8;;;;;;;26.91;48.88086;936.9072;;;;
2023/09/01 14:18:00;;;;;;;1.2;1.1;;;;;;;26.56;51.50684;936.8957;;;;
2023/09/01 14:20:27;;;;;;;1.3;0.9;;;;;;;26.67;50.05078;936.9016;;;;
2023/09/01 14:22:52;;;;;;;1;0.9;;;;;;;26.79;48.39453;936.9059;;;;
2023/09/01 14:25:17;;;;;;;1.8;1.1;;;;;;;26.4;51.55957;936.8236;;;;
2023/09/01 14:27:42;;;;;;;1.2;1;;;;;;;26.43;49.1123;936.8726;;;;